Impacts METAR Board
IDs:

KSTL - St Louis/Lambert Int, MO, US

Updated at: 1200 UTC 23 Mar 2019
Potential Impact None Slight Moderate High
Time 23/00Z 23/01Z 23/02Z 23/03Z 23/04Z 23/05Z 23/06Z 23/07Z 23/08Z 23/09Z 23/10Z 23/11Z 23/12Z
Temp57 56 52 50 47 47 44 42 41 40 40 38 36
Dewpt30 29 29 30 29 30 30 30 31 30 30 29 29
Altim30.14 30.16 30.18 30.19 30.20 30.21 30.22 30.22 30.22 30.23 30.25 30.26 30.28
VIS10 10 10 10 10 10 10 10 10 10 10 10 10
CIG-- -- -- -- 250 250 250 230 220 220 200 250 250
CoverSCTSCTSCTSCTBKNOVCOVCOVCOVCBKNOVCBKNBKN
FltCatVFRVFRVFRVFRVFRVFRVFRVFRVFRVFRVFRVFRVFR
WX--------------------------
WDir3603040608090110100120110100100110
WSpd6 6 5 6 6 8 7 7 6 5 4 5 6
WGst-- -- -- -- -- -- -- -- -- -- -- -- --
Raw hourly METARs
KSTL 222351Z 36006KT 10SM SCT250 14/M01 A3014 RMK AO2 SLP209 T01391011 10172 20139 53001
KSTL 230051Z 03006KT 10SM SCT250 13/M02 A3016 RMK AO2 SLP214 T01331017
KSTL 230151Z 04005KT 10SM SCT250 11/M02 A3018 RMK AO2 SLP221 T01111017
KSTL 230251Z 06006KT 10SM SCT250 10/M01 A3019 RMK AO2 SLP227 T01001011 53017
KSTL 230351Z 08006KT 10SM BKN250 08/M02 A3020 RMK AO2 SLP228 T00831017
KSTL 230451Z 09008KT 10SM OVC250 08/M01 A3021 RMK AO2 SLP231 T00831011
KSTL 230551Z 11007KT 10SM OVC250 07/M01 A3022 RMK AO2 SLP235 T00671011 10144 20067 401720033 53009
KSTL 230651Z 10007KT 10SM OVC230 06/M01 A3022 RMK AO2 SLP234 T00561011
KSTL 230751Z 12006KT 10SM OVC220 05/M01 A3022 RMK AO2 SLP233 T00501006
KSTL 230851Z 11005KT 10SM BKN220 04/M01 A3023 RMK AO2 SLP238 T00441011 53003
KSTL 230951Z 10004KT 10SM FEW150 OVC200 04/M01 A3025 RMK AO2 SLP242 T00441011
KSTL 231051Z 10005KT 10SM BKN250 03/M02 A3026 RMK AO2 SLP247 T00331017
KSTL 231151Z 11006KT 10SM FEW150 BKN250 02/M02 A3028 RMK AO2 SLP256 T00221017 10067 20022 53016



Page loaded:  12:17 UTC  |   05:17 AM Pacific  |   06:17 AM Mountain  |   07:17 AM Central  |   08:17 AM Eastern

 

ADVISORIES

FORECASTS

FORECASTS

OBSERVATIONS

USER TOOLS

ABOUT US